createdAt,value
2018-04-20T00:01:19.571Z,1.80
2018-04-20T00:03:22.731Z,2.37
2018-04-20T00:05:26.678Z,2.30
2018-04-20T00:07:29.839Z,2.10
2018-04-20T00:09:33.760Z,1.83
2018-04-20T00:11:37.709Z,2.50
2018-04-20T00:13:41.903Z,1.98
2018-04-20T00:15:45.144Z,1.97
2018-04-20T00:17:48.322Z,1.98
2018-04-20T00:19:52.260Z,2.25
2018-04-20T00:21:55.831Z,1.90
2018-04-20T00:23:59.652Z,2.10
2018-04-20T00:26:02.832Z,1.93
2018-04-20T00:28:06.023Z,2.13
2018-04-20T00:30:09.224Z,1.70
2018-04-20T00:32:13.175Z,2.17
2018-04-20T00:34:16.331Z,2.10
2018-04-20T00:36:19.491Z,2.00
2018-04-20T00:38:22.698Z,2.40
2018-04-20T00:40:26.081Z,1.80
2018-04-20T00:42:30.009Z,1.73
2018-04-20T00:44:33.928Z,2.72
2018-04-20T00:46:37.875Z,2.37
2018-04-20T00:48:41.038Z,1.93
2018-04-20T00:50:44.193Z,1.63
2018-04-20T00:52:47.383Z,2.40
2018-04-20T00:54:51.303Z,2.00
2018-04-20T00:56:56.359Z,2.12
2018-04-20T00:59:00.308Z,1.80
2018-04-20T01:01:05.012Z,2.20
2018-04-20T01:03:09.912Z,1.90
2018-04-20T01:05:14.541Z,2.03
2018-04-20T01:07:19.085Z,2.07
2018-04-20T01:09:23.311Z,1.97
2018-04-20T01:11:27.820Z,1.77
2018-04-20T01:13:31.668Z,1.83
2018-04-20T01:15:36.125Z,1.90
2018-04-20T01:17:40.503Z,2.13
2018-04-20T01:19:44.687Z,1.62
2018-04-20T01:21:49.169Z,2.12
2018-04-20T01:23:53.456Z,2.08
2018-04-20T01:26:00.205Z,2.10
2018-04-20T01:28:04.493Z,2.10
2018-04-20T01:30:08.775Z,1.80
2018-04-20T01:32:14.009Z,1.80
2018-04-20T01:34:18.282Z,1.95
2018-04-20T01:36:23.337Z,1.87
2018-04-20T01:38:27.932Z,1.52
2018-04-20T01:40:32.775Z,2.07
2018-04-20T01:42:37.214Z,2.10
2018-04-20T01:44:41.400Z,1.90
2018-04-20T01:46:45.111Z,1.70
2018-04-20T01:48:49.504Z,1.70
2018-04-20T01:50:53.782Z,1.80
2018-04-20T01:53:00.135Z,1.83
2018-04-20T01:55:04.313Z,1.70
2018-04-20T01:57:08.632Z,1.97
2018-04-20T01:59:13.208Z,2.13
2018-04-20T02:01:17.746Z,2.00
2018-04-20T02:03:20.930Z,1.73
2018-04-20T02:05:24.088Z,1.67
2018-04-20T02:07:27.268Z,2.22
2018-04-20T02:09:30.426Z,1.67
2018-04-20T02:11:34.382Z,1.73
2018-04-20T02:13:39.173Z,1.87
2018-04-20T02:15:42.363Z,1.77
2018-04-20T02:17:45.512Z,2.10
2018-04-20T02:19:49.418Z,1.90
2018-04-20T02:21:52.611Z,1.75
2018-04-20T02:23:55.771Z,2.12
2018-04-20T02:25:58.919Z,2.03
2018-04-20T02:28:02.096Z,2.23
2018-04-20T02:30:05.248Z,1.80
2018-04-20T02:32:08.450Z,2.17
2018-04-20T02:34:11.600Z,1.90
2018-04-20T02:36:15.581Z,1.92
2018-04-20T02:38:18.898Z,2.00
2018-04-20T02:40:22.056Z,2.20
2018-04-20T02:42:25.236Z,1.60
2018-04-20T02:44:29.161Z,2.10
2018-04-20T02:46:33.823Z,2.00
2018-04-20T02:48:37.003Z,1.98
2018-04-20T02:50:40.150Z,1.93
2018-04-20T02:52:43.323Z,2.10
2018-04-20T02:54:46.481Z,2.20
2018-04-20T02:56:49.664Z,2.03
2018-04-20T02:58:53.598Z,2.13
2018-04-20T03:00:56.770Z,1.90
2018-04-20T03:02:59.964Z,1.87
2018-04-20T03:05:03.110Z,1.90
2018-04-20T03:07:07.035Z,1.83
2018-04-20T03:09:10.984Z,1.80
2018-04-20T03:11:14.155Z,1.93
2018-04-20T03:13:17.302Z,2.10
2018-04-20T03:15:20.481Z,2.27
2018-04-20T03:17:24.435Z,2.15
2018-04-20T03:19:27.620Z,2.20
2018-04-20T03:21:31.546Z,2.20
2018-04-20T03:23:35.679Z,2.35
2018-04-20T03:25:39.827Z,2.42
2018-04-20T03:27:42.994Z,2.37
2018-04-20T03:29:46.481Z,2.65
2018-04-20T03:31:49.879Z,2.20
2018-04-20T03:33:53.031Z,2.30
2018-04-20T03:35:56.180Z,2.50
2018-04-20T03:38:00.137Z,2.58
2018-04-20T03:40:03.393Z,2.33
2018-04-20T03:42:07.323Z,2.40
2018-04-20T03:44:11.271Z,2.50
2018-04-20T03:46:14.422Z,2.20
2018-04-20T03:48:17.572Z,2.58
2018-04-20T03:50:20.754Z,2.77
2018-04-20T03:52:23.903Z,2.60
2018-04-20T03:54:27.062Z,2.43
2018-04-20T03:56:31.844Z,2.60
2018-04-20T03:58:37.080Z,2.33
2018-04-20T04:00:41.927Z,2.50
2018-04-20T04:02:47.217Z,2.47
2018-04-20T04:04:52.337Z,3.40
2018-04-20T04:06:57.231Z,2.63
2018-04-20T04:09:02.816Z,2.45
2018-04-20T04:11:07.826Z,2.78
2018-04-20T04:13:12.367Z,2.80
2018-04-20T04:15:17.177Z,2.83
2018-04-20T04:17:39.483Z,2.37
2018-04-20T04:19:56.820Z,2.70
2018-04-20T04:22:20.405Z,2.10
2018-04-20T04:24:43.645Z,2.33
2018-04-20T04:27:06.608Z,2.50
2018-04-20T04:29:11.112Z,3.00
2018-04-20T04:31:15.665Z,3.10
2018-04-20T04:33:20.200Z,2.67
2018-04-20T04:35:26.299Z,2.77
2018-04-20T04:37:29.591Z,2.33
2018-04-20T04:39:32.765Z,2.65
2018-04-20T04:41:36.707Z,2.50
2018-04-20T04:43:39.978Z,2.70
2018-04-20T04:45:43.156Z,2.73
2018-04-20T04:47:46.332Z,2.90
2018-04-20T04:49:49.485Z,2.93
2018-04-20T04:51:52.667Z,3.10
2018-04-20T04:53:55.832Z,2.67
2018-04-20T04:55:59.770Z,2.72
2018-04-20T04:58:03.687Z,2.60
2018-04-20T05:00:07.631Z,2.73
2018-04-20T05:02:10.810Z,2.97
2018-04-20T05:04:13.987Z,3.03
2018-04-20T05:06:17.147Z,3.17
2018-04-20T05:08:22.217Z,2.70
2018-04-20T05:10:25.404Z,2.87
2018-04-20T05:12:29.327Z,2.97
2018-04-20T05:14:33.307Z,2.90
2018-04-20T05:16:36.469Z,2.77
2018-04-20T05:18:40.387Z,2.97
2018-04-20T05:20:44.340Z,3.00
2018-04-20T05:22:47.523Z,3.03
2018-04-20T05:24:51.448Z,3.10
2018-04-20T05:26:56.000Z,7.90
2018-04-20T05:28:59.153Z,3.43
2018-04-20T05:31:02.471Z,3.95
2018-04-20T05:33:07.159Z,3.57
2018-04-20T05:35:11.213Z,3.03
2018-04-20T05:37:14.373Z,3.00
2018-04-20T05:39:18.324Z,2.72
2018-04-20T05:41:22.599Z,3.07
2018-04-20T05:43:26.082Z,2.93
2018-04-20T05:45:29.255Z,3.17
2018-04-20T05:47:32.418Z,3.15
2018-04-20T05:49:35.562Z,2.62
2018-04-20T05:51:38.766Z,3.07
2018-04-20T05:53:42.933Z,3.30
2018-04-20T05:55:46.096Z,2.93
2018-04-20T05:57:49.291Z,3.20
2018-04-20T05:59:52.445Z,3.15
2018-04-20T06:01:58.392Z,2.67
2018-04-20T06:04:01.579Z,3.33
2018-04-20T06:06:04.755Z,2.90
2018-04-20T06:08:08.363Z,3.33
2018-04-20T06:10:11.796Z,3.27
2018-04-20T06:12:14.955Z,3.72
2018-04-20T06:14:18.159Z,2.65
2018-04-20T06:16:21.319Z,3.63
2018-04-20T06:18:24.502Z,3.12
2018-04-20T06:20:28.463Z,3.47
2018-04-20T06:22:31.634Z,3.15
2018-04-20T06:24:35.554Z,3.10
2018-04-20T06:26:39.500Z,2.50
2018-04-20T06:28:42.680Z,3.33
2018-04-20T06:30:49.008Z,3.17
2018-04-20T06:32:54.878Z,3.03
2018-04-20T06:34:59.399Z,3.40
2018-04-20T06:37:03.627Z,2.83
2018-04-20T06:39:08.092Z,3.03
2018-04-20T06:41:12.936Z,3.20
2018-04-20T06:43:16.083Z,3.27
2018-04-20T06:45:19.263Z,3.47
2018-04-20T06:47:22.444Z,3.20
2018-04-20T06:49:25.608Z,3.17
2018-04-20T06:51:29.759Z,3.10
2018-04-20T06:53:33.676Z,2.80
2018-04-20T06:55:37.601Z,2.93
2018-04-20T06:57:41.551Z,3.17
2018-04-20T06:59:44.725Z,3.20
2018-04-20T07:01:47.941Z,3.40
2018-04-20T07:03:51.082Z,2.93
2018-04-20T07:05:54.268Z,2.80
2018-04-20T07:07:58.220Z,2.90
2018-04-20T07:10:01.386Z,2.97
2018-04-20T07:12:05.466Z,2.72
2018-04-20T07:14:09.627Z,2.93
2018-04-20T07:16:12.812Z,3.20
2018-04-20T07:18:16.077Z,2.70
2018-04-20T07:20:20.002Z,3.28
2018-04-20T07:22:23.978Z,3.03
2018-04-20T07:24:27.179Z,2.90
2018-04-20T07:26:33.288Z,3.10
2018-04-20T07:28:37.625Z,2.83
2018-04-20T07:30:40.811Z,2.90
2018-04-20T07:32:44.003Z,3.05
2018-04-20T07:34:47.160Z,2.70
2018-04-20T07:36:50.324Z,2.60
2018-04-20T07:38:53.695Z,2.50
2018-04-20T07:40:58.182Z,2.80
2018-04-20T07:43:01.458Z,2.80
2018-04-20T07:45:04.614Z,2.50
2018-04-20T07:47:07.975Z,2.05
2018-04-20T07:49:11.122Z,2.40
2018-04-20T07:51:14.276Z,2.47
2018-04-20T07:53:18.229Z,2.40
2018-04-20T07:55:21.423Z,2.33
2018-04-20T07:57:24.605Z,2.65
2018-04-20T07:59:27.797Z,2.53
2018-04-20T08:01:33.616Z,2.37
2018-04-20T08:03:36.907Z,1.95
2018-04-20T08:05:40.863Z,2.70
2018-04-20T08:07:44.056Z,2.40
2018-04-20T08:09:47.467Z,2.30
2018-04-20T08:11:50.644Z,2.27
2018-04-20T08:13:55.352Z,2.30
2018-04-20T08:15:58.540Z,2.33
2018-04-20T08:18:01.728Z,2.28
2018-04-20T08:20:05.740Z,2.58
2018-04-20T08:22:08.884Z,2.47
2018-04-20T08:24:13.196Z,2.30
2018-04-20T08:26:17.143Z,2.33
2018-04-20T08:28:20.349Z,2.27
2018-04-20T08:30:23.531Z,2.22
2018-04-20T08:32:27.484Z,2.05
2018-04-20T08:34:31.963Z,2.42
2018-04-20T08:36:36.354Z,2.23
2018-04-20T08:38:39.531Z,3.03
2018-04-20T08:40:42.726Z,2.95
2018-04-20T08:42:45.968Z,2.45
2018-04-20T08:44:50.010Z,2.77
2018-04-20T08:46:53.781Z,3.00
2018-04-20T08:48:56.964Z,4.07
2018-04-20T08:51:00.152Z,4.03
2018-04-20T08:53:03.368Z,3.75
2018-04-20T08:55:06.555Z,4.00
2018-04-20T08:57:09.739Z,3.70
2018-04-20T08:59:13.911Z,4.62
2018-04-20T09:01:17.095Z,4.40
2018-04-20T09:03:21.043Z,4.07
2018-04-20T09:05:24.234Z,4.83
2018-04-20T09:07:28.193Z,4.10
2018-04-20T09:09:31.383Z,4.10
2018-04-20T09:11:34.575Z,3.77
2018-04-20T09:13:38.533Z,4.43
2018-04-20T09:17:44.840Z,3.80
2018-04-20T09:19:48.103Z,3.80
2018-04-20T09:21:51.297Z,4.10
2018-04-20T09:23:54.694Z,3.80
2018-04-20T09:25:57.880Z,4.30
2018-04-20T09:28:01.062Z,4.80
2018-04-20T09:30:05.127Z,3.83
2018-04-20T09:32:08.320Z,3.77
2018-04-20T09:34:11.498Z,4.30
2018-04-20T09:36:14.787Z,4.13
2018-04-20T09:38:18.846Z,4.60
2018-04-20T09:40:23.012Z,4.40
2018-04-20T09:42:26.194Z,3.80
2018-04-20T09:44:29.367Z,4.00
2018-04-20T09:46:32.548Z,4.65
2018-04-20T09:48:35.748Z,3.13
2018-04-20T09:50:38.935Z,4.10
2018-04-20T09:52:42.162Z,3.73
2018-04-20T09:54:45.377Z,3.17
2018-04-20T09:56:48.744Z,2.95
2018-04-20T09:58:52.690Z,3.50
2018-04-20T10:00:58.621Z,3.47
2018-04-20T10:03:01.795Z,2.90
2018-04-20T10:05:05.052Z,3.08
2018-04-20T10:07:08.293Z,3.50
2018-04-20T10:09:11.471Z,3.30
2018-04-20T10:11:15.814Z,3.33
2018-04-20T10:13:19.904Z,3.00
2018-04-20T10:15:24.067Z,3.30
2018-04-20T10:17:28.008Z,2.85
2018-04-20T10:19:32.800Z,3.53
2018-04-20T10:21:36.015Z,3.50
2018-04-20T10:23:39.245Z,3.87
2018-04-20T10:25:42.439Z,3.43
2018-04-20T10:27:46.209Z,3.97
2018-04-20T10:29:49.432Z,3.62
2018-04-20T10:31:52.606Z,3.73
2018-04-20T10:33:56.769Z,2.92
2018-04-20T10:35:59.947Z,3.47
2018-04-20T10:38:03.905Z,4.25
2018-04-20T10:40:07.119Z,3.60
2018-04-20T10:42:10.483Z,3.93
2018-04-20T10:44:13.671Z,4.30
2018-04-20T10:46:16.851Z,4.40
2018-04-20T10:48:20.031Z,4.20
2018-04-20T10:50:23.973Z,4.85
2018-04-20T10:52:27.379Z,4.60
2018-04-20T10:54:30.564Z,4.47
2018-04-20T10:56:34.514Z,3.72
2018-04-20T10:58:37.938Z,4.18
2018-04-20T11:00:41.114Z,4.46
2018-04-20T11:02:45.092Z,3.72
2018-04-20T11:04:48.274Z,4.12
2018-04-20T11:06:51.475Z,4.57
2018-04-20T11:08:56.543Z,4.00
2018-04-20T11:10:59.728Z,4.32
2018-04-20T11:13:03.863Z,3.92
2018-04-20T11:15:07.833Z,4.40
2018-04-20T11:17:11.015Z,4.22
2018-04-20T11:19:14.205Z,4.45
2018-04-20T11:21:18.156Z,3.92
2018-04-20T11:23:21.335Z,4.32
2018-04-20T11:25:25.288Z,3.92
2018-04-20T11:27:28.474Z,4.60
2018-04-20T11:29:32.722Z,3.97
2018-04-20T11:31:38.817Z,4.60
2018-04-20T11:33:42.000Z,4.50
2018-04-20T11:35:45.197Z,5.20
2018-04-20T11:37:49.148Z,4.70
2018-04-20T11:39:52.336Z,4.87
2018-04-20T11:41:56.284Z,4.15
2018-04-20T11:44:00.243Z,3.58
2018-04-20T11:46:03.432Z,4.30
2018-04-20T11:48:06.602Z,3.90
2018-04-20T11:50:11.243Z,4.12
2018-04-20T11:52:15.191Z,3.77
2018-04-20T11:54:18.401Z,3.58
2018-04-20T11:56:21.623Z,3.37
2018-04-20T11:58:24.795Z,3.90
2018-04-20T12:00:28.748Z,3.57
2018-04-20T12:02:31.930Z,4.50
2018-04-20T12:04:35.878Z,4.70
2018-04-20T12:06:39.084Z,4.70
2018-04-20T12:08:42.303Z,4.95
2018-04-20T12:10:45.492Z,4.22
2018-04-20T12:12:48.675Z,3.85
2018-04-20T12:14:51.864Z,4.45
2018-04-20T12:16:55.036Z,4.22
2018-04-20T12:18:58.214Z,4.37
2018-04-20T12:21:02.767Z,4.62
2018-04-20T12:23:05.949Z,4.37
2018-04-20T12:25:09.130Z,3.73
2018-04-20T12:27:12.399Z,4.23
2018-04-20T12:29:15.571Z,4.30
2018-04-20T12:31:18.811Z,4.50
2018-04-20T12:33:22.048Z,3.20
2018-04-20T12:35:25.279Z,3.37
2018-04-20T12:37:28.507Z,3.47
2018-04-20T12:39:31.684Z,4.17
2018-04-20T12:41:34.912Z,4.10
2018-04-20T12:43:38.155Z,3.80
2018-04-20T12:45:41.435Z,3.83
2018-04-20T12:47:44.662Z,4.00
2018-04-20T12:49:47.832Z,4.50
2018-04-20T12:51:51.018Z,3.73
2018-04-20T12:53:54.211Z,3.87
2018-04-20T12:55:57.407Z,3.55
2018-04-20T12:58:01.382Z,2.97
2018-04-20T13:00:04.596Z,3.40
2018-04-20T13:02:08.627Z,3.68
2018-04-20T13:04:12.032Z,4.03
2018-04-20T13:06:15.234Z,3.45
2018-04-20T13:08:18.484Z,3.83
2018-04-20T13:10:22.699Z,3.63
2018-04-20T13:12:26.171Z,3.83
2018-04-20T13:14:29.370Z,3.62
2018-04-20T13:16:32.745Z,3.17
2018-04-20T13:18:36.032Z,3.70
2018-04-20T13:20:39.307Z,3.15
2018-04-20T13:22:42.535Z,2.62
2018-04-20T13:24:46.262Z,3.63
2018-04-20T13:26:51.372Z,3.17
2018-04-20T13:28:55.321Z,3.30
2018-04-20T13:30:58.554Z,3.72
2018-04-20T13:33:01.808Z,3.50
2018-04-20T13:35:05.800Z,4.18
2018-04-20T13:37:09.004Z,3.35
2018-04-20T13:39:13.111Z,2.77
2018-04-20T13:41:16.289Z,2.67
2018-04-20T13:43:20.716Z,2.82
2018-04-20T13:45:23.912Z,2.20
2018-04-20T13:47:27.087Z,2.57
2018-04-20T13:49:30.292Z,2.60
2018-04-20T13:51:33.474Z,2.42
2018-04-20T13:53:36.667Z,3.13
2018-04-20T13:55:40.747Z,2.87
2018-04-20T13:57:44.399Z,2.42
2018-04-20T13:59:47.683Z,2.50
2018-04-20T14:01:50.974Z,2.00
2018-04-20T14:03:54.260Z,1.73
2018-04-20T14:05:57.506Z,2.13
2018-04-20T14:08:00.825Z,1.77
2018-04-20T14:10:04.037Z,1.70
2018-04-20T14:12:07.399Z,1.55
2018-04-20T14:14:10.603Z,1.52
2018-04-20T14:16:14.556Z,1.60
2018-04-20T14:18:17.731Z,1.15
2018-04-20T14:20:21.813Z,1.40
2018-04-20T14:22:25.012Z,1.60
2018-04-20T14:24:28.964Z,1.50
2018-04-20T14:26:32.151Z,1.12
2018-04-20T14:28:35.336Z,1.90
2018-04-20T14:30:38.530Z,1.50
2018-04-20T14:32:42.493Z,1.48
2018-04-20T14:34:46.421Z,1.27
2018-04-20T14:36:49.747Z,1.40
2018-04-20T14:38:53.000Z,1.33
2018-04-20T14:40:56.951Z,1.67
2018-04-20T14:43:00.134Z,1.47
2018-04-20T14:45:04.075Z,1.63
2018-04-20T14:47:07.365Z,1.30
2018-04-20T14:49:11.345Z,1.48
2018-04-20T14:51:14.624Z,1.90
2018-04-20T14:53:17.841Z,1.53
2018-04-20T14:55:21.025Z,1.58
2018-04-20T14:57:24.971Z,1.40
2018-04-20T14:59:28.162Z,1.50
2018-04-20T15:01:32.119Z,1.75
2018-04-20T15:03:35.499Z,1.60
2018-04-20T15:05:38.694Z,1.57
2018-04-20T15:07:42.573Z,1.40
2018-04-20T15:09:45.839Z,1.40
2018-04-20T15:11:49.821Z,1.74
2018-04-20T15:13:53.065Z,1.62
2018-04-20T15:15:57.897Z,1.80
2018-04-20T15:18:01.369Z,2.00
2018-04-20T15:20:04.751Z,1.70
2018-04-20T15:22:08.004Z,1.90
2018-04-20T15:24:11.481Z,1.90
2018-04-20T15:26:14.688Z,1.62
2018-04-20T15:28:18.638Z,1.65
2018-04-20T15:30:21.921Z,1.77
2018-04-20T15:32:25.260Z,1.90
2018-04-20T15:34:28.658Z,1.80
2018-04-20T15:36:31.862Z,1.67
2018-04-20T15:38:35.820Z,2.10
2018-04-20T15:40:40.337Z,1.26
2018-04-20T15:42:43.660Z,1.42
2018-04-20T15:44:47.036Z,1.10
2018-04-20T15:46:51.184Z,1.40
2018-04-20T15:48:54.422Z,1.50
2018-04-20T15:50:57.594Z,2.00
2018-04-20T15:53:02.135Z,1.60
2018-04-20T15:55:05.478Z,1.58
2018-04-20T15:57:08.674Z,2.00
2018-04-20T15:59:11.867Z,1.80
2018-04-20T16:01:15.056Z,1.48
2018-04-20T16:03:18.452Z,1.83
2018-04-20T16:05:22.445Z,1.97
2018-04-20T16:07:26.010Z,2.08
2018-04-20T16:09:29.369Z,1.76
2018-04-20T16:11:32.555Z,1.50
2018-04-20T16:13:36.509Z,1.87
2018-04-20T16:15:39.759Z,1.35
2018-04-20T16:17:42.892Z,1.70
2018-04-20T16:19:46.887Z,2.03
2018-04-20T16:21:51.661Z,1.70
2018-04-20T16:23:55.653Z,1.65
2018-04-20T16:25:59.704Z,1.87
2018-04-20T16:28:03.678Z,2.07
2018-04-20T16:30:06.875Z,1.90
2018-04-20T16:32:10.603Z,1.55
2018-04-20T16:34:13.790Z,1.73
2018-04-20T16:36:16.969Z,1.55
2018-04-20T16:38:20.245Z,1.73
2018-04-20T16:40:23.476Z,1.90
2018-04-20T16:42:28.732Z,1.80
2018-04-20T16:44:32.670Z,1.70
2018-04-20T16:46:35.915Z,1.90
2018-04-20T16:48:39.095Z,2.00
2018-04-20T16:50:42.311Z,1.67
2018-04-20T16:52:47.066Z,1.62
2018-04-20T16:54:51.037Z,2.10
2018-04-20T16:56:54.222Z,2.23
2018-04-20T16:58:57.390Z,1.80
2018-04-20T17:01:00.567Z,2.43
2018-04-20T17:03:03.931Z,1.95
2018-04-20T17:05:07.871Z,2.00
2018-04-20T17:07:11.081Z,1.67
2018-04-20T17:09:14.257Z,2.73
2018-04-20T17:11:18.197Z,2.15
2018-04-20T17:13:21.380Z,1.87
2018-04-20T17:15:24.556Z,2.00
2018-04-20T17:19:30.775Z,2.50
2018-04-20T17:21:34.720Z,2.57
2018-04-20T17:23:37.890Z,1.83
2018-04-20T17:25:41.096Z,1.77
2018-04-20T17:27:44.271Z,1.90
2018-04-20T17:29:48.300Z,2.10
2018-04-20T17:31:51.554Z,2.15
2018-04-20T17:33:54.723Z,1.93
2018-04-20T17:35:58.655Z,2.27
2018-04-20T17:38:01.851Z,2.40
2018-04-20T17:40:05.072Z,2.17
2018-04-20T17:42:08.251Z,2.30
2018-04-20T17:44:11.743Z,2.10
2018-04-20T17:46:14.916Z,2.03
2018-04-20T17:48:18.086Z,2.00
2018-04-20T17:50:21.350Z,1.80
2018-04-20T17:52:24.552Z,2.23
2018-04-20T17:54:28.199Z,2.33
2018-04-20T17:56:32.511Z,2.40
2018-04-20T17:58:35.695Z,2.47
2018-04-20T18:00:38.893Z,2.42
2018-04-20T18:02:42.862Z,2.17
2018-04-20T18:04:46.036Z,2.72
2018-04-20T18:06:49.975Z,2.70
2018-04-20T18:08:53.149Z,2.10
2018-04-20T18:10:57.087Z,2.53
2018-04-20T18:13:01.029Z,2.33
2018-04-20T18:15:04.211Z,2.40
2018-04-20T18:17:08.153Z,2.17
2018-04-20T18:19:11.335Z,2.22
2018-04-20T18:21:14.542Z,2.83
2018-04-20T18:23:17.716Z,2.20
2018-04-20T18:25:20.895Z,2.03
2018-04-20T18:27:24.072Z,2.70
2018-04-20T18:29:27.260Z,3.00
2018-04-20T18:31:30.443Z,2.23
2018-04-20T18:33:33.717Z,2.30
2018-04-20T18:35:37.159Z,2.20
2018-04-20T18:37:40.357Z,1.83
2018-04-20T18:39:43.529Z,2.37
2018-04-20T18:41:46.770Z,2.43
2018-04-20T18:43:50.747Z,2.30
2018-04-20T18:45:53.941Z,2.57
2018-04-20T18:47:57.255Z,2.80
2018-04-20T18:50:00.488Z,2.43
2018-04-20T18:52:04.088Z,2.70
2018-04-20T18:54:07.271Z,2.37
2018-04-20T18:56:10.484Z,2.33
2018-04-20T18:58:13.758Z,2.40
2018-04-20T19:00:17.523Z,2.53
2018-04-20T19:02:25.787Z,2.70
2018-04-20T19:04:34.519Z,2.90
2018-04-20T19:06:37.776Z,3.20
2018-04-20T19:08:43.523Z,2.27
2018-04-20T19:10:49.029Z,2.25
2018-04-20T19:12:52.716Z,2.58
2018-04-20T19:14:59.197Z,2.50
2018-04-20T19:17:06.359Z,2.60
2018-04-20T19:19:09.544Z,2.30
2018-04-20T19:21:12.722Z,2.70
2018-04-20T19:23:15.894Z,2.33
2018-04-20T19:25:20.046Z,2.60
2018-04-20T19:27:26.294Z,2.73
2018-04-20T19:29:29.482Z,2.90
2018-04-20T19:31:32.671Z,2.70
2018-04-20T19:33:35.855Z,2.70
2018-04-20T19:35:39.052Z,2.80
2018-04-20T19:37:43.544Z,2.42
2018-04-20T19:39:46.751Z,2.80
2018-04-20T19:41:49.930Z,2.47
2018-04-20T19:43:53.115Z,3.35
2018-04-20T19:45:57.138Z,2.43
2018-04-20T19:48:01.124Z,2.70
2018-04-20T19:50:04.306Z,2.70
2018-04-20T19:52:07.516Z,2.60
2018-04-20T19:54:10.695Z,2.87
2018-04-20T19:56:14.635Z,2.75
2018-04-20T19:58:18.686Z,2.40
2018-04-20T20:00:22.674Z,2.47
2018-04-20T20:02:26.655Z,2.57
2018-04-20T20:04:29.840Z,2.97
2018-04-20T20:06:33.015Z,2.75
2018-04-20T20:08:38.581Z,2.70
2018-04-20T20:10:42.610Z,2.70
2018-04-20T20:12:46.558Z,3.00
2018-04-20T20:14:51.077Z,3.33
2018-04-20T20:16:55.042Z,3.20
2018-04-20T20:18:59.183Z,3.22
2018-04-20T20:21:02.365Z,3.30
2018-04-20T20:23:05.551Z,3.47
2018-04-20T20:25:08.740Z,3.57
2018-04-20T20:27:12.692Z,3.15
2018-04-20T20:29:15.879Z,2.83
2018-04-20T20:31:19.506Z,3.35
2018-04-20T20:33:23.441Z,3.00
2018-04-20T20:35:27.411Z,3.43
2018-04-20T20:37:30.652Z,3.50
2018-04-20T20:39:34.639Z,3.37
2018-04-20T20:41:37.828Z,3.43
2018-04-20T20:43:41.067Z,3.70
2018-04-20T20:45:44.252Z,3.03
2018-04-20T20:47:47.470Z,3.30
2018-04-20T20:49:50.706Z,3.10
2018-04-20T20:51:53.885Z,3.17
2018-04-20T20:53:57.071Z,3.40
2018-04-20T20:56:01.014Z,3.03
2018-04-20T20:58:04.232Z,3.60
2018-04-20T21:00:07.407Z,3.27
2018-04-20T21:02:12.010Z,3.40
2018-04-20T21:04:15.225Z,3.73
2018-04-20T21:06:18.574Z,3.50
2018-04-20T21:08:21.730Z,3.47
2018-04-20T21:10:24.878Z,3.80
2018-04-20T21:12:30.897Z,3.23
2018-04-20T21:14:34.150Z,3.10
2018-04-20T21:16:38.092Z,3.80
2018-04-20T21:18:42.033Z,3.43
2018-04-20T21:20:45.822Z,3.97
2018-04-20T21:22:50.534Z,3.50
2018-04-20T21:24:57.027Z,3.67
2018-04-20T21:27:03.375Z,3.42
2018-04-20T21:29:09.573Z,2.83
2018-04-20T21:31:12.768Z,3.57
2018-04-20T21:33:17.225Z,3.33
2018-04-20T21:35:20.835Z,3.50
2018-04-20T21:37:24.312Z,3.83
2018-04-20T21:39:27.727Z,3.72
2018-04-20T21:41:31.241Z,3.22
2018-04-20T21:43:35.157Z,3.50
2018-04-20T21:45:39.099Z,3.60
2018-04-20T21:47:42.721Z,3.63
2018-04-20T21:49:45.891Z,3.60
2018-04-20T21:51:51.478Z,3.60
2018-04-20T21:53:55.398Z,3.67
2018-04-20T21:55:59.346Z,4.10
2018-04-20T21:58:03.249Z,3.30
2018-04-20T22:00:07.795Z,3.50
2018-04-20T22:02:12.943Z,4.03
2018-04-20T22:04:16.890Z,3.80
2018-04-20T22:06:20.831Z,3.53
2018-04-20T22:08:24.050Z,3.83
2018-04-20T22:10:27.208Z,4.03
2018-04-20T22:12:31.163Z,3.80
2018-04-20T22:14:34.354Z,3.50
2018-04-20T22:16:38.303Z,3.70
2018-04-20T22:18:41.723Z,3.80
2018-04-20T22:20:44.887Z,4.40
2018-04-20T22:22:48.830Z,3.87
2018-04-20T22:24:52.017Z,3.70
2018-04-20T22:26:55.963Z,3.67
2018-04-20T22:28:59.157Z,4.12
2018-04-20T22:31:03.115Z,3.73
2018-04-20T22:33:06.267Z,4.45
2018-04-20T22:35:09.431Z,3.62
2018-04-20T22:37:12.693Z,3.45
2018-04-20T22:39:15.826Z,4.18
2018-04-20T22:41:19.747Z,3.80
2018-04-20T22:43:23.691Z,4.00
2018-04-20T22:45:26.875Z,3.87
2018-04-20T22:47:30.842Z,4.28
2018-04-20T22:49:34.006Z,3.85
2018-04-20T22:51:37.946Z,4.18
2018-04-20T22:53:42.990Z,3.73
2018-04-20T22:55:46.924Z,4.33
2018-04-20T22:57:50.110Z,4.12
2018-04-20T22:59:53.268Z,4.15
2018-04-20T23:01:56.440Z,3.83
2018-04-20T23:04:00.360Z,4.10
2018-04-20T23:06:04.278Z,4.10
2018-04-20T23:08:08.231Z,4.40
2018-04-20T23:10:11.417Z,3.67
2018-04-20T23:12:15.381Z,4.53
2018-04-20T23:14:18.562Z,4.00
2018-04-20T23:16:23.622Z,4.17
2018-04-20T23:18:26.794Z,3.93
2018-04-20T23:20:31.499Z,4.93
2018-04-20T23:22:34.676Z,3.83
2018-04-20T23:24:38.613Z,4.93
2018-04-20T23:26:41.783Z,4.03
2018-04-20T23:28:44.973Z,3.87
2018-04-20T23:30:48.120Z,4.28
2018-04-20T23:32:52.051Z,4.03
2018-04-20T23:34:56.298Z,4.80
2018-04-20T23:36:59.462Z,4.40
2018-04-20T23:39:03.448Z,4.47
2018-04-20T23:41:06.651Z,4.60
2018-04-20T23:43:09.807Z,4.53
2018-04-20T23:45:13.744Z,4.20
2018-04-20T23:47:16.940Z,4.20
2018-04-20T23:49:20.111Z,4.73
2018-04-20T23:51:23.748Z,4.77
2018-04-20T23:53:26.920Z,4.70
2018-04-20T23:55:30.070Z,4.47
2018-04-20T23:57:33.243Z,4.47
2018-04-20T23:59:36.403Z,4.40
